METAR Data
IDs: Format: Raw Decoded Include TAF

Data at: 1451 UTC 25 Jan 2020

METAR for:KHLX (Hillsville/Twin Cnty, VA, US)
Text:KHLX 251435Z AUTO 29008KT 10SM SCT034 OVC042 03/01 A2990 RMK AO2 T00320007
Temperature: 3.2°C ( 38°F)
Dewpoint: 0.7°C ( 33°F) [RH = 84%]
Pressure (altimeter):29.90 inches Hg (1012.6 mb)
Winds:from the WNW (290 degrees) at 9 MPH (8 knots; 4.1 m/s)
Visibility:10 or more sm (16+ km)
Ceiling:4200 feet AGL
Clouds: scattered clouds at 3400 feet AGL, overcast cloud deck at 4200 feet AGL
QC Flag:automated observation with no human augmentation